BCN weather

Barcelona International Airport
Barcelona, Catalonia, Spain

Public forecast

Using degrees Celsius for public forecast. Weather courtesy of forecast.io.

METAR (pilot weather report)

Retrieved 2017/10/24 06:30 UTC (11 minutes ago):

LEBL 240630Z 32009KT 290V350 CAVOK 13/09 Q1023 NOSIG

TAF (pilot weather forecast)

Retrieved 2017/10/24 06:27 UTC (14 minutes ago):

TAF LEBL 240500Z 2406/2506 34009KT 9999 FEW030 TX24/2412Z TN12/2406Z BECMG 2412/2414 21011KT BECMG 2419/2421 34005KT